EDDKEDLP

Guest
Details From EDDK - Koln Bonn
To EDLP - Paderborn Lippstadt
Flight Number -
Tags Generated
Created
Modified
Stats Distance 71 nm / 132 km
Max Altitude 0 ft / 0 m
Waypoints 2
Social Downloads 3
Likes 0
Share VATSIM

Download

Looking for another format? Having issues loading an existing format? Contact us
Advertisement - Login to hide

Notes

Generated

Route

EDDK EDLP

ID Type Via Altitude Latitude Longitude Leg Dist Tot Dist Heading (true) Name
O EDDK APT - 0 ft / 0 m 50.87084˚ 7.12086˚ - 0 nm - -
O EDLP APT - 0 ft / 0 m 51.60888˚ 8.60309˚ 71 nm 71 nm 51° / 52° -

Altitude Profile

Advertisement - Login to hide

EDDK

Details ICAO EDDK (CGN)
Name Koln Bonn
Region Germany - Civil
Timezone Europe/Berlin (UTC+1.0)
Stats Elevation 302 ft / 92 m (AMSL)
Location 50.865801° 7.138903°
Runways 3
Magnetic Variation 1.929° E

METAR

EDDK 152220Z 06003KT 9999 FEW015 SCT027 BKN038 02/01 Q1002 NOSIG

Decode

TAF

TAF EDDK 151700Z 1518/1624 VRB03KT 9999 BKN025 TEMPO 1518/1520 BKN012 BECMG 1520/1523 BKN012 TEMPO 1523/1612 3500 -RA BR BKN007 BECMG 1605/1608 28007KT BECMG 1612/1615 BKN020 TEMPO 1615/1624 4000 -SHRA BKN013TCU

Decode

Departure Runways

ID Width Length Bearing (true) Bearing (mag) Surface Threshold Offset Overrun Length
06 148 ft / 45 m 8,047 ft / 2,453 m 64.33° 62.40° Concrete 0 ft / 0 m 197 ft / 60 m
14L 197 ft / 60 m 12,497 ft / 3,809 m 137.55° 135.62° Asphalt 0 ft / 0 m 197 ft / 60 m
14R 148 ft / 45 m 6,102 ft / 1,860 m 137.54° 135.61° Asphalt 0 ft / 0 m 197 ft / 60 m
24 148 ft / 45 m 8,047 ft / 2,453 m 244.36° 242.43° Concrete 0 ft / 0 m 197 ft / 60 m
32L 148 ft / 45 m 6,102 ft / 1,860 m 317.56° 315.63° Asphalt 0 ft / 0 m 197 ft / 60 m
32R 197 ft / 60 m 12,497 ft / 3,809 m 317.58° 315.65° Asphalt 0 ft / 0 m 197 ft / 60 m

EDLP

Details ICAO EDLP (PAD)
Name Paderborn Lippstadt
Region Germany - Civil
Timezone Europe/Berlin (UTC+1.0)
Stats Elevation 699 ft / 213 m (AMSL)
Location 51.614166° 8.616336°
Runways 1
Magnetic Variation 2.357° E

METAR

EDLP 152150Z 23004KT 9999 BKN022 01/M00 Q1001

Decode

TAF

TAF TAF EDLP 151700Z 1518/1618 VRB03KT 9999 BKN025 BECMG 1522/1602 BKN013 BECMG 1601/1604 26007KT TEMPO 1602/1610 3500 -SNRA BR BKN004 TEMPO 1613/1618 28015KT 4000 -SHSNRA BKN008 SCT015TCU

Decode

Destination Runways

ID Width Length Bearing (true) Bearing (mag) Surface Threshold Offset Overrun Length
06 148 ft / 45 m 7,136 ft / 2,175 m 57.28° 54.92° Asphalt 0 ft / 0 m 1,066 ft / 325 m
24 148 ft / 45 m 7,136 ft / 2,175 m 237.30° 234.94° Asphalt 0 ft / 0 m 397 ft / 121 m

Approach Navaids

Runway Type Ident Frequency Range Bearing (true) Bearing (mag) Slope Elevation
06 Localiser IPLE 111.70 MHz 18 nm / 33 km 57.13° 54.78° - 674 ft / 205 m (AMSL)
06 Glidescope IPLE 111.70 MHz 10 nm / 19 km 57.29° 54.93° 3.00° 699 ft / 213 m (AMSL)
24 Localiser IPLW 108.55 MHz 18 nm / 33 km 236.80° 234.44° - 699 ft / 213 m (AMSL)
24 Glidescope IPLW 108.55 MHz 10 nm / 19 km 237.29° 234.93° 3.00° 674 ft / 205 m (AMSL)

Popular Alternatives